Time;durP1;ratioP1;P1;durP2;ratioP2;P2;SDS_P1;SDS_P2;PMS_P1;PMS_P2;Temp;Humidity;BMP_temperature;BMP_pressure;BME280_temperature;BME280_humidity;BME280_pressure;Samples;Min_cycle;Max_cycle;Signal;HPM_P1;HPM_P2
2022/06/12 00:00:52;;;;;;;3.78;2.55;;;20.00;98.30;;;;;;5036457;28;20057;-49
2022/06/12 00:03:19;;;;;;;3.08;2.55;;;19.90;98.70;;;;;;5038011;28;20049;-50
2022/06/12 00:05:48;;;;;;;4.05;2.20;;;19.80;99.10;;;;;;5055818;28;20028;-48
2022/06/12 00:08:14;;;;;;;4.60;2.30;;;19.70;99.40;;;;;;5055371;28;20025;-51
2022/06/12 00:10:42;;;;;;;4.50;2.05;;;19.60;99.80;;;;;;5045900;28;20028;-51
2022/06/12 00:13:10;;;;;;;5.10;3.00;;;19.50;99.90;;;;;;5045834;28;20025;-51
2022/06/12 00:15:36;;;;;;;3.50;2.40;;;19.50;99.90;;;;;;5056245;28;20074;-48
2022/06/12 00:18:03;;;;;;;14.57;3.20;;;19.40;99.90;;;;;;5056137;28;20551;-56
2022/06/12 00:20:29;;;;;;;3.10;2.55;;;19.30;99.90;;;;;;5055799;28;20389;-50
2022/06/12 00:22:56;;;;;;;3.08;2.30;;;19.20;99.90;;;;;;5055355;28;20025;-49
2022/06/12 00:25:25;;;;;;;2.58;2.30;;;19.20;99.90;;;;;;5056260;28;20167;-49
2022/06/12 00:27:51;;;;;;;3.30;2.60;;;19.00;99.90;;;;;;5045424;28;20047;-50
2022/06/12 00:30:19;;;;;;;4.40;2.60;;;18.90;99.90;;;;;;5036150;28;20124;-52
2022/06/12 00:32:49;;;;;;;5.45;2.70;;;18.80;99.90;;;;;;5035610;28;20079;-51
2022/06/12 00:35:16;;;;;;;2.95;2.20;;;18.70;99.90;;;;;;5035499;28;20400;-54
2022/06/12 00:37:43;;;;;;;5.60;2.40;;;18.60;99.90;;;;;;5034889;28;20072;-49
2022/06/12 00:40:09;;;;;;;6.45;2.20;;;18.50;99.90;;;;;;5035872;28;20033;-52
2022/06/12 00:42:39;;;;;;;3.13;2.58;;;18.50;99.90;;;;;;5044995;28;20481;-52
2022/06/12 00:45:26;;;;;;;5.85;2.60;;;18.50;99.90;;;;;;5055439;28;20033;-48
2022/06/12 00:47:55;;;;;;;4.07;2.08;;;18.50;99.90;;;;;;5054840;28;20021;-54
2022/06/12 00:50:21;;;;;;;3.65;2.50;;;18.50;99.90;;;;;;5055116;28;20499;-52
2022/06/12 00:52:50;;;;;;;2.47;2.28;;;18.50;99.90;;;;;;5054856;28;20067;-52
2022/06/12 00:55:43;;;;;;;7.78;2.65;;;18.50;99.90;;;;;;5054869;28;20112;-49
2022/06/12 00:58:19;;;;;;;3.25;2.20;;;18.60;99.90;;;;;;5054075;28;20040;-51
2022/06/12 01:00:47;;;;;;;2.53;2.33;;;18.60;99.90;;;;;;5055022;28;20096;-49
2022/06/12 01:03:14;;;;;;;2.88;2.13;;;18.60;99.90;;;;;;5055199;28;20021;-48
2022/06/12 01:08:24;;;;;;;4.88;2.20;;;18.60;99.90;;;;;;5047465;28;20393;-50
2022/06/12 01:10:54;;;;;;;6.55;2.65;;;18.60;99.90;;;;;;5035034;28;20057;-48
2022/06/12 01:13:30;;;;;;;5.63;2.45;;;18.60;99.90;;;;;;5035361;28;20100;-49
2022/06/12 01:16:00;;;;;;;4.95;3.05;;;18.60;99.90;;;;;;5034762;28;20087;-49
2022/06/12 01:18:33;;;;;;;4.60;2.63;;;18.60;99.90;;;;;;5034611;28;20040;-51
2022/06/12 01:21:36;;;;;;;4.32;2.45;;;18.60;99.90;;;;;;5045173;28;20025;-51
2022/06/12 01:24:10;;;;;;;4.75;2.80;;;18.60;99.90;;;;;;5055593;28;20484;-48
2022/06/12 01:27:04;;;;;;;5.35;2.47;;;18.60;99.90;;;;;;5053466;28;20040;-49
2022/06/12 01:29:51;;;;;;;4.22;2.20;;;18.60;99.90;;;;;;5055281;28;20356;-53
2022/06/12 01:32:33;;;;;;;3.47;2.85;;;18.50;99.90;;;;;;5055268;28;20032;-50
2022/06/12 01:35:14;;;;;;;8.23;2.75;;;18.50;99.90;;;;;;5048670;28;20448;-49
2022/06/12 01:38:02;;;;;;;4.07;2.60;;;18.40;99.90;;;;;;5034391;28;20044;-52
2022/06/12 01:40:32;;;;;;;5.35;2.60;;;18.40;99.90;;;;;;5034761;28;20425;-52
2022/06/12 01:43:14;;;;;;;4.53;2.83;;;18.40;99.90;;;;;;5035633;28;20018;-52
2022/06/12 01:46:03;;;;;;;3.95;3.55;;;18.30;99.90;;;;;;5034460;28;20033;-54
2022/06/12 01:48:58;;;;;;;4.75;2.95;;;18.30;99.90;;;;;;5035896;28;20072;-51
2022/06/12 01:51:29;;;;;;;3.95;3.22;;;18.20;99.90;;;;;;5035007;28;20025;-48
2022/06/12 01:54:09;;;;;;;3.47;2.70;;;18.20;99.90;;;;;;5034936;28;20465;-52
2022/06/12 01:56:48;;;;;;;4.68;2.78;;;18.30;99.90;;;;;;5035239;28;20025;-51
2022/06/12 01:59:24;;;;;;;6.47;2.40;;;18.20;99.90;;;;;;5034980;28;20061;-52
2022/06/12 02:02:07;;;;;;;4.03;2.60;;;18.20;99.90;;;;;;5035645;28;20048;-52
2022/06/12 02:04:44;;;;;;;6.60;2.30;;;18.10;99.90;;;;;;5034830;28;20071;-48
2022/06/12 02:07:15;;;;;;;5.32;2.58;;;18.10;99.90;;;;;;5033223;28;20091;-54
2022/06/12 02:09:54;;;;;;;8.15;2.80;;;18.10;99.90;;;;;;5034357;28;20033;-47
2022/06/12 02:15:22;;;;;;;4.30;2.70;;;18.10;99.90;;;;;;5033293;28;20084;-48
2022/06/12 02:17:52;;;;;;;2.80;2.60;;;18.10;99.90;;;;;;5047482;28;20029;-51
2022/06/12 02:20:21;;;;;;;3.08;2.80;;;18.10;99.90;;;;;;5051464;28;20515;-52
2022/06/12 02:22:49;;;;;;;7.32;2.97;;;18.10;99.90;;;;;;5053423;28;20481;-50
2022/06/12 02:25:26;;;;;;;14.20;2.63;;;18.10;99.90;;;;;;5053698;28;20028;-47
2022/06/12 02:28:09;;;;;;;5.40;2.90;;;18.10;99.90;;;;;;5052605;28;20455;-50
2022/06/12 02:30:38;;;;;;;2.75;2.22;;;18.10;99.90;;;;;;5053137;28;20055;-49
2022/06/12 02:33:11;;;;;;;2.88;2.55;;;18.00;99.90;;;;;;5053492;28;20058;-52
2022/06/12 02:35:52;;;;;;;5.50;3.10;;;17.90;99.90;;;;;;5046963;28;20049;-53
2022/06/12 02:38:41;;;;;;;2.88;2.58;;;17.90;99.90;;;;;;5053111;28;20055;-50
2022/06/12 02:41:13;;;;;;;7.22;3.20;;;17.80;99.90;;;;;;5053773;28;20017;-52
2022/06/12 02:43:43;;;;;;;3.78;3.22;;;17.80;99.90;;;;;;5052541;28;20021;-50
2022/06/12 02:46:16;;;;;;;8.82;2.72;;;17.80;99.90;;;;;;5035585;28;20388;-49
2022/06/12 02:48:43;;;;;;;3.08;2.80;;;17.80;99.90;;;;;;5037293;28;20031;-49
2022/06/12 02:51:34;;;;;;;5.95;2.95;;;17.80;99.90;;;;;;5039342;28;20032;-51
2022/06/12 02:54:12;;;;;;;3.45;2.88;;;17.80;99.90;;;;;;5036350;28;20025;-51
2022/06/12 02:56:43;;;;;;;4.45;2.90;;;17.80;99.90;;;;;;5037558;28;20029;-48
2022/06/12 02:59:54;;;;;;;3.60;2.38;;;17.70;99.90;;;;;;5037207;28;20065;-56
2022/06/12 03:02:32;;;;;;;3.72;2.95;;;17.80;99.90;;;;;;5037820;28;20082;-49
2022/06/12 03:05:01;;;;;;;3.25;2.53;;;17.70;99.90;;;;;;5037438;28;20084;-51
2022/06/12 03:07:31;;;;;;;8.38;3.22;;;17.70;99.90;;;;;;5037390;28;20505;-51
2022/06/12 03:10:03;;;;;;;5.22;2.95;;;17.60;99.90;;;;;;5038778;28;20464;-51
2022/06/12 03:12:29;;;;;;;6.05;2.70;;;17.60;99.90;;;;;;5037931;28;20091;-52
2022/06/12 03:14:55;;;;;;;3.40;2.60;;;17.70;99.90;;;;;;5038398;28;20029;-51
2022/06/12 03:17:22;;;;;;;5.45;3.33;;;17.70;99.90;;;;;;5038269;28;20049;-49
2022/06/12 03:19:50;;;;;;;4.15;2.92;;;17.60;99.90;;;;;;5038333;28;20027;-48
2022/06/12 03:22:37;;;;;;;4.68;3.03;;;17.50;99.90;;;;;;5037424;28;20030;-50
2022/06/12 03:25:18;;;;;;;7.55;3.47;;;17.50;99.90;;;;;;5058772;28;20061;-49
2022/06/12 03:28:05;;;;;;;9.35;3.08;;;17.50;99.90;;;;;;5041996;28;20542;-49
2022/06/12 03:30:33;;;;;;;9.30;3.10;;;17.60;99.90;;;;;;5040790;28;20041;-51
2022/06/12 03:33:09;;;;;;;3.85;2.78;;;17.50;99.90;;;;;;5038476;28;20025;-52
2022/06/12 03:35:52;;;;;;;;;;;17.40;99.90;;;;;;5053625;28;20033;-49
2022/06/12 03:38:35;;;;;;;7.43;3.40;;;17.40;99.90;;;;;;5055028;28;19931;-52
2022/06/12 03:41:30;;;;;;;6.47;3.78;;;17.40;99.90;;;;;;5046523;28;20554;-52
2022/06/12 03:44:29;;;;;;;3.97;3.38;;;17.40;99.90;;;;;;5055808;28;20037;-50
2022/06/12 03:47:21;;;;;;;5.68;3.15;;;17.50;99.90;;;;;;5025853;28;20112;-48
2022/06/12 03:49:54;;;;;;;3.05;2.67;;;17.50;99.90;;;;;;5037426;28;20025;-49
2022/06/12 03:52:42;;;;;;;5.40;2.83;;;17.50;99.90;;;;;;5037482;28;20719;-50
2022/06/12 03:58:20;;;;;;;5.55;3.25;;;17.40;99.90;;;;;;5035793;28;20571;-50
2022/06/12 04:00:49;;;;;;;4.20;3.20;;;17.40;99.90;;;;;;5036843;28;20022;-48
2022/06/12 04:03:34;;;;;;;5.70;3.50;;;17.40;99.90;;;;;;5036603;28;20079;-49
2022/06/12 04:06:11;;;;;;;6.47;3.25;;;17.50;99.90;;;;;;5051209;28;20116;-47
2022/06/12 04:09:01;;;;;;;3.05;2.78;;;17.60;99.90;;;;;;5055205;28;20094;-53
2022/06/12 04:11:28;;;;;;;3.35;3.08;;;17.70;99.90;;;;;;5054821;28;20108;-53
2022/06/12 04:13:56;;;;;;;8.82;3.90;;;17.70;99.90;;;;;;5056037;28;20020;-47
2022/06/12 04:16:38;;;;;;;4.40;3.15;;;17.80;99.90;;;;;;5056915;28;20136;-51
2022/06/12 04:19:07;;;;;;;5.05;3.40;;;17.90;99.90;;;;;;5056917;28;20021;-50
2022/06/12 04:21:42;;;;;;;5.25;3.53;;;18.00;99.90;;;;;;5048102;28;20119;-49
2022/06/12 04:24:14;;;;;;;3.75;3.13;;;18.00;99.90;;;;;;5049520;28;20402;-50
2022/06/12 04:26:48;;;;;;;6.53;3.50;;;18.20;99.90;;;;;;5042742;28;20033;-51
2022/06/12 04:29:14;;;;;;;5.97;3.90;;;18.20;99.90;;;;;;5054119;28;20037;-49
2022/06/12 04:31:45;;;;;;;5.97;4.03;;;18.40;99.90;;;;;;5051941;28;20511;-49
2022/06/12 04:34:22;;;;;;;4.90;3.92;;;18.30;99.90;;;;;;5057557;28;20028;-50
2022/06/12 04:36:52;;;;;;;11.45;5.00;;;18.30;99.90;;;;;;5056139;28;20036;-51
2022/06/12 04:39:21;;;;;;;9.00;4.28;;;18.30;99.90;;;;;;5059210;28;20074;-51
2022/06/12 04:41:47;;;;;;;4.82;4.30;;;18.30;99.90;;;;;;5060277;28;20029;-51
2022/06/12 04:44:13;;;;;;;8.70;3.60;;;18.50;99.90;;;;;;5060611;28;20075;-49
2022/06/12 04:46:41;;;;;;;6.47;3.33;;;18.50;99.90;;;;;;5060873;28;20021;-50
2022/06/12 04:49:07;;;;;;;6.85;3.65;;;18.70;99.90;;;;;;5058488;28;20025;-52
2022/06/12 04:51:33;;;;;;;6.88;2.88;;;19.00;99.90;;;;;;5060939;28;20039;-54
2022/06/12 04:53:59;;;;;;;4.25;2.55;;;19.40;99.90;;;;;;5060637;28;20036;-51
2022/06/12 04:56:28;;;;;;;5.65;2.83;;;20.00;99.90;;;;;;5058478;28;20112;-54
2022/06/12 04:58:55;;;;;;;3.42;2.38;;;20.80;99.90;;;;;;5057046;28;20032;-52
2022/06/12 05:01:22;;;;;;;7.70;2.85;;;21.80;99.90;;;;;;5057938;28;20017;-49
2022/06/12 05:03:47;;;;;;;4.78;2.40;;;22.90;99.90;;;;;;5057861;28;20058;-52
2022/06/12 05:06:14;;;;;;;2.97;2.20;;;24.10;98.80;;;;;;5058930;28;20492;-53
2022/06/12 05:08:40;;;;;;;7.28;2.17;;;25.10;97.10;;;;;;5057006;28;20029;-55
2022/06/12 05:11:06;;;;;;;4.55;2.22;;;26.30;95.50;;;;;;5057720;28;20067;-52
2022/06/12 05:13:31;;;;;;;2.35;1.75;;;27.00;93.80;;;;;;5058001;28;20029;-50
2022/06/12 05:15:58;;;;;;;4.63;2.00;;;27.60;92.60;;;;;;5057514;28;20084;-55
2022/06/12 05:18:24;;;;;;;4.50;1.90;;;28.40;91.20;;;;;;5057329;28;20492;-52
2022/06/12 05:20:50;;;;;;;2.38;1.98;;;28.90;89.30;;;;;;5057721;28;20023;-56
2022/06/12 05:23:16;;;;;;;2.08;1.60;;;29.40;88.20;;;;;;5058158;28;20029;-51
2022/06/12 05:25:42;;;;;;;5.07;1.60;;;29.80;86.10;;;;;;5058802;28;20592;-49
2022/06/12 05:28:13;;;;;;;6.47;1.98;;;30.30;83.70;;;;;;5057113;28;20041;-54
2022/06/12 05:30:38;;;;;;;2.53;1.75;;;30.60;82.70;;;;;;5057679;28;20040;-53
2022/06/12 05:33:04;;;;;;;3.80;2.00;;;30.70;80.90;;;;;;5049823;28;20028;-50
2022/06/12 05:35:31;;;;;;;6.55;2.13;;;30.80;90.10;;;;;;5041285;28;20025;-49
2022/06/12 05:38:00;;;;;;;5.22;1.80;;;31.40;80.30;;;;;;5036160;28;20050;-52
2022/06/12 05:40:31;;;;;;;3.80;1.80;;;31.50;78.20;;;;;;5044465;28;20025;-52
2022/06/12 05:42:56;;;;;;;2.55;1.83;;;31.80;77.00;;;;;;5053334;28;20496;-48
2022/06/12 05:45:25;;;;;;;2.78;1.85;;;31.80;76.40;;;;;;5053429;28;20036;-49
2022/06/12 05:48:05;;;;;;;5.13;1.70;;;31.70;76.70;;;;;;5039915;28;20025;-54
2022/06/12 05:50:34;;;;;;;5.35;2.60;;;31.90;76.40;;;;;;5048267;28;20115;-51
2022/06/12 05:53:00;;;;;;;6.70;2.60;;;32.40;76.10;;;;;;5045243;28;20028;-54
2022/06/12 05:55:26;;;;;;;2.80;1.40;;;32.40;74.10;;;;;;5046403;28;20404;-52
2022/06/12 05:57:52;;;;;;;6.18;1.80;;;32.00;74.90;;;;;;5053287;28;20021;-51
2022/06/12 06:00:23;;;;;;;3.55;1.65;;;32.00;75.70;;;;;;5043573;28;20057;-52
2022/06/12 06:02:48;;;;;;;3.95;1.50;;;32.10;77.80;;;;;;5045957;28;20021;-47
2022/06/12 06:05:15;;;;;;;2.28;1.35;;;33.10;72.70;;;;;;5055642;28;20096;-53
2022/06/12 06:07:41;;;;;;;4.13;1.48;;;33.50;71.00;;;;;;5053416;28;20021;-47
2022/06/12 06:10:12;;;;;;;3.75;2.17;;;32.80;70.50;;;;;;5035913;28;20030;-48
2022/06/12 06:12:37;;;;;;;6.78;1.60;;;32.60;70.80;;;;;;5046067;28;20058;-47
2022/06/12 06:15:03;;;;;;;1.10;1.10;;;32.80;71.20;;;;;;5060538;28;20512;-47
2022/06/12 06:17:29;;;;;;;4.57;1.40;;;33.10;70.50;;;;;;5058612;28;20021;-51
2022/06/12 06:19:54;;;;;;;1.88;1.40;;;33.70;69.40;;;;;;5043444;28;20029;-48
2022/06/12 06:22:20;;;;;;;2.35;1.38;;;34.10;68.70;;;;;;5052409;28;20073;-50
2022/06/12 06:24:46;;;;;;;2.97;1.58;;;34.10;68.00;;;;;;5063582;28;20036;-48
2022/06/12 06:27:13;;;;;;;3.40;1.38;;;33.90;67.50;;;;;;5052215;28;20036;-50
2022/06/12 06:29:39;;;;;;;2.95;1.58;;;33.90;67.50;;;;;;5047431;28;20040;-52
2022/06/12 06:32:07;;;;;;;1.80;1.17;;;34.50;66.70;;;;;;5056124;28;20029;-47
2022/06/12 06:34:37;;;;;;;2.15;1.40;;;34.50;65.80;;;;;;5066368;28;20037;-52
2022/06/12 06:37:04;;;;;;;2.55;1.50;;;34.80;65.10;;;;;;5061818;28;20025;-48
2022/06/12 06:39:29;;;;;;;2.17;1.48;;;35.00;64.40;;;;;;5044676;28;20029;-54
2022/06/12 06:41:55;;;;;;;1.77;1.45;;;34.70;64.30;;;;;;5054287;28;20025;-48
2022/06/12 06:47:05;;;;;;;1.73;1.30;;;34.50;64.50;;;;;;5064055;28;20523;-48
2022/06/12 06:49:33;;;;;;;3.00;1.17;;;34.70;64.50;;;;;;5063311;28;20040;-51
2022/06/12 06:51:59;;;;;;;3.88;1.40;;;35.00;64.50;;;;;;5051947;28;20041;-47
2022/06/12 06:54:26;;;;;;;2.85;1.40;;;35.30;63.30;;;;;;5059501;28;20052;-48
2022/06/12 06:56:51;;;;;;;3.42;1.30;;;34.70;64.60;;;;;;5058730;28;20052;-50
2022/06/12 06:59:18;;;;;;;3.88;1.20;;;34.90;64.20;;;;;;5050828;28;20029;-52
2022/06/12 07:01:44;;;;;;;1.27;1.17;;;34.50;64.60;;;;;;5047373;28;20022;-50
2022/06/12 07:04:10;;;;;;;2.72;1.60;;;34.90;63.70;;;;;;5060420;28;20017;-47
2022/06/12 07:06:35;;;;;;;3.90;1.30;;;35.30;62.90;;;;;;5065604;28;20037;-48
2022/06/12 07:09:01;;;;;;;5.30;1.35;;;35.40;62.80;;;;;;5065862;28;20037;-51
2022/06/12 07:11:28;;;;;;;3.70;1.50;;;35.60;61.50;;;;;;5047717;28;20037;-47
2022/06/12 07:13:56;;;;;;;2.80;1.00;;;36.10;61.60;;;;;;5038093;28;20033;-49
2022/06/12 07:16:24;;;;;;;2.47;1.50;;;36.60;61.30;;;;;;5055477;28;20021;-49
2022/06/12 07:18:50;;;;;;;2.72;1.30;;;36.70;60.40;;;;;;5058656;28;20086;-50
2022/06/12 07:21:16;;;;;;;4.80;1.40;;;37.40;60.20;;;;;;5059508;28;20439;-48
2022/06/12 07:23:42;;;;;;;2.60;1.25;;;37.30;59.80;;;;;;5060390;28;20021;-49
2022/06/12 07:26:14;;;;;;;4.18;1.92;;;37.30;58.70;;;;;;5053088;28;20016;-53
2022/06/12 07:28:40;;;;;;;2.72;1.35;;;36.90;59.00;;;;;;5053464;28;20044;-52
2022/06/12 07:31:07;;;;;;;2.75;1.27;;;36.80;58.80;;;;;;5042340;28;20080;-52
2022/06/12 07:33:34;;;;;;;3.90;1.55;;;37.10;58.60;;;;;;5038197;28;20025;-47
2022/06/12 07:36:00;;;;;;;4.18;1.50;;;37.50;58.40;;;;;;5056472;28;20048;-50
2022/06/12 07:38:27;;;;;;;3.53;1.95;;;37.60;57.60;;;;;;5057746;28;20032;-51
2022/06/12 07:41:00;;;;;;;4.22;1.42;;;37.90;57.50;;;;;;5052347;28;20026;-50
2022/06/12 07:43:28;;;;;;;3.00;1.30;;;37.90;57.00;;;;;;5036157;28;20071;-47
2022/06/12 07:45:54;;;;;;;4.78;2.80;;;37.60;56.60;;;;;;5053392;28;20026;-51
2022/06/12 07:48:21;;;;;;;3.10;1.50;;;37.60;56.50;;;;;;5039211;28;20029;-51
2022/06/12 07:50:48;;;;;;;3.92;1.30;;;37.80;56.70;;;;;;5037878;28;20018;-55
2022/06/12 07:53:15;;;;;;;2.63;1.20;;;38.40;56.20;;;;;;5037354;28;20034;-49
2022/06/12 07:55:42;;;;;;;2.47;1.08;;;37.30;55.90;;;;;;5037039;28;20075;-51
2022/06/12 07:58:09;;;;;;;3.30;1.42;;;36.70;56.70;;;;;;5036502;28;20033;-51
2022/06/12 08:00:36;;;;;;;3.20;1.48;;;36.40;57.60;;;;;;5037110;28;20021;-46
2022/06/12 08:03:01;;;;;;;2.75;1.30;;;36.90;57.50;;;;;;5036620;28;20032;-52
2022/06/12 08:05:27;;;;;;;2.65;1.52;;;37.50;56.80;;;;;;5036798;28;20021;-50
2022/06/12 08:07:52;;;;;;;3.08;2.08;;;37.50;56.90;;;;;;5037038;28;20013;-47
2022/06/12 08:10:18;;;;;;;5.55;1.25;;;37.00;56.40;;;;;;5038037;28;20025;-47
2022/06/12 08:12:45;;;;;;;7.00;1.70;;;36.70;57.20;;;;;;5035329;28;20489;-50
2022/06/12 08:15:16;;;;;;;3.40;1.30;;;36.40;57.90;;;;;;5036345;28;20105;-48
2022/06/12 08:17:42;;;;;;;3.45;1.70;;;36.50;58.00;;;;;;5035388;28;20505;-45
2022/06/12 08:20:27;;;;;;;4.07;1.67;;;36.40;57.90;;;;;;5034424;28;20053;-48
2022/06/12 08:22:57;;;;;;;3.78;1.50;;;35.70;58.30;;;;;;5043603;28;20025;-48
2022/06/12 08:25:23;;;;;;;4.63;1.60;;;35.00;60.10;;;;;;5055047;28;20013;-49
2022/06/12 08:27:48;;;;;;;3.55;1.60;;;33.90;60.30;;;;;;5057181;28;20092;-47
2022/06/12 08:30:14;;;;;;;3.38;1.20;;;33.60;62.10;;;;;;5057017;28;20040;-47
2022/06/12 08:32:42;;;;;;;2.67;1.13;;;33.70;63.40;;;;;;5055195;28;20087;-49
2022/06/12 08:35:14;;;;;;;4.40;2.47;;;33.00;62.90;;;;;;5054889;28;20032;-48
2022/06/12 08:37:41;;;;;;;3.95;1.35;;;32.80;62.10;;;;;;5056164;28;20029;-47
2022/06/12 08:40:28;;;;;;;6.38;1.65;;;32.30;63.30;;;;;;5056143;28;20029;-48
2022/06/12 08:43:20;;;;;;;4.93;1.20;;;32.10;63.80;;;;;;5053236;28;20064;-49
2022/06/12 08:45:49;;;;;;;5.85;2.20;;;32.10;63.30;;;;;;5051218;28;20033;-52
2022/06/12 08:48:30;;;;;;;7.32;2.25;;;32.00;64.10;;;;;;5040290;28;20187;-53
2022/06/12 08:50:56;;;;;;;7.03;1.98;;;32.00;64.30;;;;;;5038228;28;20044;-46
2022/06/12 08:53:31;;;;;;;6.53;2.58;;;31.70;64.60;;;;;;5050302;28;20021;-52
2022/06/12 08:56:00;;;;;;;5.75;2.15;;;30.40;66.40;;;;;;5040663;28;20017;-48
2022/06/12 08:58:30;;;;;;;5.38;2.08;;;30.40;66.70;;;;;;5054876;28;20024;-52
2022/06/12 09:00:58;;;;;;;5.68;2.22;;;30.10;67.10;;;;;;5060919;28;20029;-53
2022/06/12 09:03:27;;;;;;;5.25;1.80;;;30.20;68.00;;;;;;5060739;28;20029;-53
2022/06/12 09:05:59;;;;;;;8.63;2.15;;;30.60;68.60;;;;;;5061420;28;20029;-50
2022/06/12 09:08:35;;;;;;;4.43;1.58;;;30.90;67.70;;;;;;5060865;28;20477;-51
2022/06/12 09:11:12;;;;;;;4.93;1.73;;;31.20;67.10;;;;;;5042326;28;20082;-52
2022/06/12 09:13:55;;;;;;;4.28;1.60;;;30.70;66.20;;;;;;5040995;28;20477;-54
2022/06/12 09:16:49;;;;;;;5.18;1.90;;;30.50;67.10;;;;;;5039554;28;20065;-55
2022/06/12 09:19:41;;;;;;;2.20;1.53;;;30.40;66.60;;;;;;5040933;28;20026;-53
2022/06/12 09:22:28;;;;;;;4.50;1.95;;;29.90;68.00;;;;;;5040846;28;20268;-55
2022/06/12 09:25:09;;;;;;;5.07;1.58;;;29.70;68.00;;;;;;5056366;28;20089;-55
2022/06/12 09:27:47;;;;;;;3.35;1.70;;;29.40;69.10;;;;;;5053643;28;20029;-50
2022/06/12 09:30:25;;;;;;;3.38;1.77;;;29.30;69.20;;;;;;5057393;28;20033;-53
2022/06/12 09:33:26;;;;;;;3.80;1.58;;;29.20;70.20;;;;;;5055358;28;20040;-52
2022/06/12 09:36:08;;;;;;;39.35;29.10;;;29.30;70.70;;;;;;5049683;28;20531;-50
2022/06/12 09:38:39;;;;;;;26.92;20.58;;;29.40;69.80;;;;;;5039259;28;20048;-52
2022/06/12 09:41:08;;;;;;;4.63;2.22;;;28.90;70.00;;;;;;5043455;28;20021;-48
2022/06/12 09:43:59;;;;;;;5.63;1.98;;;28.70;71.10;;;;;;5050221;28;20021;-51
2022/06/12 09:46:51;;;;;;;4.65;1.73;;;28.50;71.40;;;;;;5051665;28;20525;-54
2022/06/12 09:49:54;;;;;;;4.93;2.10;;;28.50;72.70;;;;;;5048190;28;20087;-48
2022/06/12 09:52:51;;;;;;;3.53;1.70;;;28.60;72.30;;;;;;5031486;28;20132;-46
2022/06/12 09:55:30;;;;;;;4.13;1.65;;;28.80;71.60;;;;;;5052598;28;20536;-52
2022/06/12 09:58:15;;;;;;;5.28;1.90;;;28.50;72.30;;;;;;5050898;28;20117;-49
2022/06/12 10:00:52;;;;;;;7.07;2.35;;;28.30;72.30;;;;;;5058480;28;20072;-53
2022/06/12 10:03:50;;;;;;;10.73;2.22;;;28.30;73.40;;;;;;5045155;28;20029;-51
2022/06/12 10:06:30;;;;;;;5.38;1.95;;;28.30;72.90;;;;;;5050657;28;20400;-49
2022/06/12 10:09:01;;;;;;;6.28;1.90;;;28.40;73.20;;;;;;5038648;28;20492;-47
2022/06/12 10:11:36;;;;;;;3.45;1.73;;;28.50;72.80;;;;;;5040751;28;20029;-51
2022/06/12 10:14:20;;;;;;;4.50;1.92;;;28.40;71.90;;;;;;5059500;28;20569;-50
2022/06/12 10:17:01;;;;;;;5.65;2.25;;;28.40;72.60;;;;;;5053205;28;21390;-48
2022/06/12 10:19:35;;;;;;;7.63;1.73;;;28.50;72.00;;;;;;5050362;28;20051;-49
2022/06/12 10:22:07;;;;;;;5.22;2.58;;;28.70;73.30;;;;;;5060918;28;20097;-49
2022/06/12 10:24:32;;;;;;;2.67;1.88;;;28.80;72.10;;;;;;5052406;28;20393;-47
2022/06/12 10:27:02;;;;;;;4.50;1.85;;;28.90;76.10;;;;;;5050064;28;20091;-56
2022/06/12 10:29:40;;;;;;;4.05;2.15;;;28.80;72.10;;;;;;5035300;28;20025;-51
2022/06/12 10:32:26;;;;;;;3.75;1.73;;;28.50;72.10;;;;;;5035065;28;20125;-48
2022/06/12 10:35:03;;;;;;;4.13;1.73;;;28.40;73.40;;;;;;5035020;28;20025;-50
2022/06/12 10:37:29;;;;;;;3.25;1.52;;;28.20;73.30;;;;;;5035746;28;20444;-46
2022/06/12 10:40:05;;;;;;;15.93;12.52;;;27.80;73.30;;;;;;5046998;28;20036;-52
2022/06/12 10:42:58;;;;;;;7.45;2.38;;;28.00;74.20;;;;;;5045894;28;20037;-46
2022/06/12 10:45:29;;;;;;;2.63;1.70;;;28.10;73.90;;;;;;5053123;28;20035;-45
2022/06/12 10:47:57;;;;;;;2.40;1.60;;;28.20;73.70;;;;;;5049843;28;20017;-49
2022/06/12 10:50:26;;;;;;;4.50;1.60;;;28.20;73.00;;;;;;5035457;28;20129;-54
2022/06/12 10:53:17;;;;;;;5.43;1.80;;;28.20;73.30;;;;;;5034574;28;20025;-50
2022/06/12 10:56:07;;;;;;;5.70;1.67;;;28.20;73.00;;;;;;5026927;28;20412;-47
2022/06/12 10:59:09;;;;;;;4.32;1.33;;;28.20;73.10;;;;;;5038030;28;20336;-47
2022/06/12 11:01:43;;;;;;;3.22;1.17;;;28.30;72.20;;;;;;5035698;28;20017;-48
2022/06/12 11:04:11;;;;;;;2.83;1.42;;;28.30;72.40;;;;;;5031343;28;20022;-46
2022/06/12 11:06:58;;;;;;;3.65;2.17;;;28.10;71.90;;;;;;5031883;28;20079;-45
2022/06/12 11:09:29;;;;;;;5.75;1.67;;;28.10;72.70;;;;;;5033952;28;20041;-49
2022/06/12 11:12:07;;;;;;;8.77;1.23;;;28.00;72.60;;;;;;5041058;28;20029;-50
2022/06/12 11:14:41;;;;;;;6.55;1.70;;;28.00;72.20;;;;;;5054016;28;20027;-49
2022/06/12 11:17:22;;;;;;;2.50;1.50;;;28.00;72.90;;;;;;5053053;28;20032;-49
2022/06/12 11:20:00;;;;;;;3.47;1.33;;;28.10;73.30;;;;;;5053826;28;20501;-49
2022/06/12 11:22:35;;;;;;;2.78;1.33;;;27.90;71.50;;;;;;5043309;28;20436;-49
2022/06/12 11:25:25;;;;;;;4.38;1.50;;;27.90;72.50;;;;;;5034297;28;20124;-44
2022/06/12 11:28:26;;;;;;;7.20;1.90;;;27.80;71.90;;;;;;5033388;28;20519;-46
2022/06/12 11:31:24;;;;;;;4.47;1.52;;;28.00;73.20;;;;;;5033913;28;20106;-48
2022/06/12 11:34:17;;;;;;;1.92;1.50;;;27.80;71.70;;;;;;5033829;28;20042;-48
2022/06/12 11:37:36;;;;;;;4.25;1.50;;;27.80;71.30;;;;;;5033717;28;20037;-45
2022/06/12 11:40:25;;;;;;;3.80;1.60;;;27.80;70.00;;;;;;4972565;28;20068;-46
2022/06/12 11:43:21;;;;;;;5.05;1.52;;;27.90;70.50;;;;;;5037479;28;20496;-44
2022/06/12 11:46:07;;;;;;;3.75;1.67;;;27.90;71.00;;;;;;5052937;28;20032;-46
2022/06/12 11:49:02;;;;;;;2.30;1.27;;;28.10;70.80;;;;;;5053103;28;20469;-48
2022/06/12 11:52:14;;;;;;;3.60;1.65;;;28.00;71.40;;;;;;5042130;28;20030;-45
2022/06/12 11:54:51;;;;;;;1.67;1.35;;;28.10;70.50;;;;;;4972486;28;20030;-54
2022/06/12 11:57:43;;;;;;;1.92;1.30;;;28.20;70.50;;;;;;4968190;28;20093;-50
2022/06/12 12:00:17;;;;;;;2.05;1.60;;;28.20;71.00;;;;;;5021898;28;20068;-47
2022/06/12 12:03:10;;;;;;;7.50;5.80;;;28.10;70.20;;;;;;5037373;28;20029;-48
2022/06/12 12:05:51;;;;;;;87.13;70.47;;;28.00;72.00;;;;;;5033163;28;20409;-53
2022/06/12 12:08:44;;;;;;;5.30;3.47;;;28.10;71.00;;;;;;5031461;28;20079;-48
2022/06/12 12:11:19;;;;;;;2.78;1.10;;;28.00;71.30;;;;;;5038190;28;20515;-46
2022/06/12 12:13:48;;;;;;;3.65;1.25;;;28.10;68.50;;;;;;5052804;28;20040;-49
2022/06/12 12:16:29;;;;;;;1.95;1.35;;;28.00;68.30;;;;;;5052724;28;20029;-47
2022/06/12 12:19:06;;;;;;;4.10;1.52;;;27.90;68.10;;;;;;5041376;28;20030;-54
2022/06/12 12:21:57;;;;;;;10.35;1.40;;;28.00;66.40;;;;;;5032863;28;20018;-49
2022/06/12 12:24:29;;;;;;;1.90;1.15;;;27.90;67.80;;;;;;5033145;28;20112;-49
2022/06/12 12:26:58;;;;;;;4.40;1.50;;;27.80;68.10;;;;;;5046109;28;20047;-52
2022/06/12 12:29:28;;;;;;;3.63;1.45;;;27.70;68.50;;;;;;5052523;28;20025;-46
2022/06/12 12:31:55;;;;;;;3.42;1.45;;;27.70;69.50;;;;;;5050797;28;20120;-50
2022/06/12 12:34:24;;;;;;;7.00;1.75;;;27.70;69.30;;;;;;5052637;28;20036;-48
2022/06/12 12:42:32;;;;;;;1.83;1.35;;;27.80;68.00;;;;;;5052343;28;20033;-50
2022/06/12 12:45:23;;;;;;;3.30;1.73;;;28.00;68.20;;;;;;5051913;28;20488;-51
2022/06/12 12:48:02;;;;;;;2.50;1.38;;;28.00;67.10;;;;;;5052081;28;20028;-51
2022/06/12 12:50:29;;;;;;;1.83;1.42;;;27.90;67.20;;;;;;5052431;28;20116;-46
2022/06/12 12:52:57;;;;;;;7.10;1.40;;;27.90;68.20;;;;;;5052273;28;20032;-45
2022/06/12 12:55:33;;;;;;;3.97;1.33;;;27.80;68.50;;;;;;5052472;28;20051;-47
2022/06/12 12:58:12;;;;;;;3.03;1.67;;;27.60;68.20;;;;;;5052317;28;20029;-49
2022/06/12 13:00:37;;;;;;;3.50;1.20;;;27.60;68.50;;;;;;5051106;28;20021;-47
2022/06/12 13:03:10;;;;;;;5.47;1.23;;;27.60;68.80;;;;;;5052353;28;20035;-48
2022/06/12 13:05:57;;;;;;;4.60;1.35;;;27.70;67.70;;;;;;5053103;28;20029;-50
2022/06/12 13:08:45;;;;;;;2.67;1.30;;;27.90;66.80;;;;;;5050412;28;20377;-49
2022/06/12 13:11:17;;;;;;;2.38;1.25;;;28.10;67.90;;;;;;5052131;28;20028;-48
2022/06/12 13:14:26;;;;;;;1.75;1.02;;;28.30;66.90;;;;;;5052333;28;20029;-46
2022/06/12 13:17:28;;;;;;;4.38;1.38;;;28.40;65.50;;;;;;5051753;28;20021;-52
2022/06/12 13:20:29;;;;;;;4.18;1.30;;;28.40;65.80;;;;;;5051963;28;20108;-47
2022/06/12 13:23:04;;;;;;;2.08;1.10;;;28.50;66.00;;;;;;5041217;28;20556;-46
2022/06/12 13:25:38;;;;;;;3.75;1.13;;;28.40;65.90;;;;;;5051784;28;20549;-46
2022/06/12 13:28:04;;;;;;;2.93;1.20;;;28.40;65.30;;;;;;5051326;28;20040;-44
2022/06/12 13:30:34;;;;;;;2.53;1.38;;;28.20;64.50;;;;;;5051638;28;20287;-49
2022/06/12 13:33:32;;;;;;;3.60;1.33;;;28.10;65.00;;;;;;5051642;28;20548;-46
2022/06/12 13:36:11;;;;;;;1.67;1.00;;;28.00;64.80;;;;;;5040399;28;20464;-48
2022/06/12 13:38:50;;;;;;;3.40;1.33;;;28.00;65.70;;;;;;5051159;28;20127;-48
2022/06/12 13:41:24;;;;;;;2.72;1.55;;;27.90;65.30;;;;;;5051810;28;20496;-46